KTRM/TRM METAR and TAF weather

Enter ICAO airport designator
Station Type Date Time Source
KTRM METAR 2022/01/29 00:52 UTC NOAA

KTRM 290052Z AUTO 28004KT 10SM CLR 18/M11 A3024 RMK AO2 SLP241 T01831111


Station Type Date Time Source
KTRM Decoded METAR 2022/01/29 00:52 UTC NOAA

Palm Springs, Jacqueline Cochran Regional Airport, CA, United States (KTRM) 33-37-36N 116-09-34W
Jan 28, 2022 - 07:52 PM EST / 2022.01.29 0052 UTC
Wind: from the W (280 degrees) at 5 MPH (4 KT):0
Visibility: 10 mile(s):0
Sky conditions: clear
Temperature: 64.9 F (18.3 C)
Dew Point: 12.0 F (-11.1 C)
Relative Humidity: 12%
Pressure (altimeter): 30.24 in. Hg (1024 hPa)
ob: KTRM 290052Z AUTO 28004KT 10SM CLR 18/M11 A3024 RMK AO2 SLP241 T01831111
cycle: 1

Station Type Date Time Source
KTRM TAF 2022/01/28 18:36 UTC NOAA

TAF KTRM 281733Z 2818/2918 35005KT P6SM SCT250

Example: see airport list